sensor_id;sensor_type;location;lat;lon;timestamp;pressure;altitude;pressure_sealevel;temperature;humidity
59063;BME280;44851;45.648;9.004;2023-05-24T00:01:12;98683.59;;;20.63;49.50
59063;BME280;44851;45.648;9.004;2023-05-24T00:03:38;98680.13;;;20.62;49.62
59063;BME280;44851;45.648;9.004;2023-05-24T00:06:04;98679.31;;;20.62;49.52
59063;BME280;44851;45.648;9.004;2023-05-24T00:08:32;98674.84;;;20.56;50.04
59063;BME280;44851;45.648;9.004;2023-05-24T00:10:57;98674.47;;;20.52;49.63
59063;BME280;44851;45.648;9.004;2023-05-24T00:13:23;98672.06;;;20.44;49.44
59063;BME280;44851;45.648;9.004;2023-05-24T00:15:49;98672.41;;;20.54;49.76
59063;BME280;44851;45.648;9.004;2023-05-24T00:18:14;98665.91;;;20.50;49.89
59063;BME280;44851;45.648;9.004;2023-05-24T00:20:42;98676.94;;;20.47;50.14
59063;BME280;44851;45.648;9.004;2023-05-24T00:23:07;98663.53;;;20.29;50.45
59063;BME280;44851;45.648;9.004;2023-05-24T00:25:33;98666.59;;;20.32;50.71
59063;BME280;44851;45.648;9.004;2023-05-24T00:27:59;98667.22;;;20.28;50.97
59063;BME280;44851;45.648;9.004;2023-05-24T00:30:24;98661.34;;;20.25;50.76
59063;BME280;44851;45.648;9.004;2023-05-24T00:32:50;98668.47;;;20.18;50.18
59063;BME280;44851;45.648;9.004;2023-05-24T00:35:16;98663.38;;;20.17;50.08
59063;BME280;44851;45.648;9.004;2023-05-24T00:37:41;98662.19;;;20.19;50.36
59063;BME280;44851;45.648;9.004;2023-05-24T00:40:12;98662.03;;;20.01;51.15
59063;BME280;44851;45.648;9.004;2023-05-24T00:42:38;98663.63;;;20.02;51.00
59063;BME280;44851;45.648;9.004;2023-05-24T00:45:03;98663.78;;;20.20;50.29
59063;BME280;44851;45.648;9.004;2023-05-24T00:47:29;98664.63;;;20.14;50.07
59063;BME280;44851;45.648;9.004;2023-05-24T00:49:55;98669.56;;;20.04;50.08
59063;BME280;44851;45.648;9.004;2023-05-24T00:52:21;98668.72;;;20.10;50.60
59063;BME280;44851;45.648;9.004;2023-05-24T00:54:47;98662.06;;;19.88;50.91
59063;BME280;44851;45.648;9.004;2023-05-24T00:57:13;98657.94;;;20.05;50.54
59063;BME280;44851;45.648;9.004;2023-05-24T00:59:39;98653.13;;;19.82;50.74
59063;BME280;44851;45.648;9.004;2023-05-24T01:02:05;98652.31;;;19.88;50.77
59063;BME280;44851;45.648;9.004;2023-05-24T01:04:31;98655.56;;;19.84;50.71
59063;BME280;44851;45.648;9.004;2023-05-24T01:10:11;98649.63;;;19.95;49.28
59063;BME280;44851;45.648;9.004;2023-05-24T01:15:26;98645.56;;;19.86;50.39
59063;BME280;44851;45.648;9.004;2023-05-24T01:18:17;98650.63;;;20.01;49.45
59063;BME280;44851;45.648;9.004;2023-05-24T01:20:48;98649.81;;;20.00;50.31
59063;BME280;44851;45.648;9.004;2023-05-24T01:23:37;98649.03;;;19.93;49.35
59063;BME280;44851;45.648;9.004;2023-05-24T01:28:38;98651.47;;;19.94;50.65
59063;BME280;44851;45.648;9.004;2023-05-24T01:31:04;98655.59;;;19.70;50.83
59063;BME280;44851;45.648;9.004;2023-05-24T01:33:31;98650.69;;;19.74;50.81
59063;BME280;44851;45.648;9.004;2023-05-24T01:35:56;98654.94;;;19.82;50.78
59063;BME280;44851;45.648;9.004;2023-05-24T01:38:22;98651.09;;;19.78;51.09
59063;BME280;44851;45.648;9.004;2023-05-24T01:40:49;98659.84;;;19.85;50.52
59063;BME280;44851;45.648;9.004;2023-05-24T01:43:33;98653.59;;;19.66;49.90
59063;BME280;44851;45.648;9.004;2023-05-24T01:46:24;98660.06;;;19.70;50.09
59063;BME280;44851;45.648;9.004;2023-05-24T01:49:22;98652.31;;;19.75;49.75
59063;BME280;44851;45.648;9.004;2023-05-24T01:52:04;98651.91;;;19.78;50.15
59063;BME280;44851;45.648;9.004;2023-05-24T01:54:32;98653.75;;;19.71;51.00
59063;BME280;44851;45.648;9.004;2023-05-24T01:57:00;98651.94;;;19.65;51.09
59063;BME280;44851;45.648;9.004;2023-05-24T01:59:30;98651.94;;;19.38;51.81
59063;BME280;44851;45.648;9.004;2023-05-24T02:01:57;98652.16;;;19.50;51.66
59063;BME280;44851;45.648;9.004;2023-05-24T02:04:23;98653.75;;;19.58;51.23
59063;BME280;44851;45.648;9.004;2023-05-24T02:06:49;98650.09;;;19.52;51.30
59063;BME280;44851;45.648;9.004;2023-05-24T02:09:15;98648.69;;;19.56;51.73
59063;BME280;44851;45.648;9.004;2023-05-24T02:11:40;98651.94;;;19.65;51.27
59063;BME280;44851;45.648;9.004;2023-05-24T02:14:05;98648.69;;;19.63;51.51
59063;BME280;44851;45.648;9.004;2023-05-24T02:16:31;98651.09;;;19.58;51.32
59063;BME280;44851;45.648;9.004;2023-05-24T02:18:57;98653.97;;;19.63;51.40
59063;BME280;44851;45.648;9.004;2023-05-24T02:21:23;98646.66;;;19.52;51.66
59063;BME280;44851;45.648;9.004;2023-05-24T02:23:49;98649.50;;;19.63;51.71
59063;BME280;44851;45.648;9.004;2023-05-24T02:26:15;98662.13;;;19.61;52.29
59063;BME280;44851;45.648;9.004;2023-05-24T02:28:43;98647.66;;;19.57;52.04
59063;BME280;44851;45.648;9.004;2023-05-24T02:31:08;98652.97;;;19.64;51.60
59063;BME280;44851;45.648;9.004;2023-05-24T02:33:34;98653.53;;;19.59;51.10
59063;BME280;44851;45.648;9.004;2023-05-24T02:36:00;98656.03;;;19.61;51.46
59063;BME280;44851;45.648;9.004;2023-05-24T02:38:25;98653.97;;;19.43;51.21
59063;BME280;44851;45.648;9.004;2023-05-24T02:40:51;98653.16;;;19.42;51.72
59063;BME280;44851;45.648;9.004;2023-05-24T02:43:16;98652.38;;;19.29;52.12
59063;BME280;44851;45.648;9.004;2023-05-24T02:45:42;98650.53;;;19.16;52.21
59063;BME280;44851;45.648;9.004;2023-05-24T02:48:07;98654.19;;;19.35;52.09
59063;BME280;44851;45.648;9.004;2023-05-24T02:50:32;98651.94;;;19.32;51.65
59063;BME280;44851;45.648;9.004;2023-05-24T02:52:58;98647.88;;;19.23;52.26
59063;BME280;44851;45.648;9.004;2023-05-24T02:55:23;98650.53;;;19.23;51.99
59063;BME280;44851;45.648;9.004;2023-05-24T02:57:49;98643.81;;;19.20;51.90
59063;BME280;44851;45.648;9.004;2023-05-24T03:00:15;98646.25;;;19.21;52.39
59063;BME280;44851;45.648;9.004;2023-05-24T03:02:43;98641.41;;;19.18;52.00
59063;BME280;44851;45.648;9.004;2023-05-24T03:05:12;98642.19;;;19.12;52.42
59063;BME280;44851;45.648;9.004;2023-05-24T03:07:37;98646.06;;;19.10;52.46
59063;BME280;44851;45.648;9.004;2023-05-24T03:10:03;98639.53;;;18.86;52.81
59063;BME280;44851;45.648;9.004;2023-05-24T03:12:29;98647.41;;;18.73;52.63
59063;BME280;44851;45.648;9.004;2023-05-24T03:14:54;98643.81;;;19.00;52.62
59063;BME280;44851;45.648;9.004;2023-05-24T03:17:19;98641.38;;;19.05;52.41
59063;BME280;44851;45.648;9.004;2023-05-24T03:19:45;98643.00;;;19.00;52.43
59063;BME280;44851;45.648;9.004;2023-05-24T03:22:10;98649.09;;;19.00;52.66
59063;BME280;44851;45.648;9.004;2023-05-24T03:24:36;98648.59;;;18.63;52.23
59063;BME280;44851;45.648;9.004;2023-05-24T03:27:04;98649.91;;;18.94;52.81
59063;BME280;44851;45.648;9.004;2023-05-24T03:29:30;98656.44;;;18.91;52.63
59063;BME280;44851;45.648;9.004;2023-05-24T03:31:55;98649.91;;;18.94;52.88
59063;BME280;44851;45.648;9.004;2023-05-24T03:34:21;98656.81;;;18.95;53.12
59063;BME280;44851;45.648;9.004;2023-05-24T03:36:46;98662.50;;;18.92;53.08
59063;BME280;44851;45.648;9.004;2023-05-24T03:39:12;98654.16;;;18.95;52.99
59063;BME280;44851;45.648;9.004;2023-05-24T03:41:37;98654.38;;;19.07;52.92
59063;BME280;44851;45.648;9.004;2023-05-24T03:44:02;98655.59;;;18.91;52.83
59063;BME280;44851;45.648;9.004;2023-05-24T03:46:28;98659.28;;;18.97;52.82
59063;BME280;44851;45.648;9.004;2023-05-24T03:48:53;98665.38;;;19.04;52.95
59063;BME280;44851;45.648;9.004;2023-05-24T03:51:19;98667.78;;;19.05;52.78
59063;BME280;44851;45.648;9.004;2023-05-24T03:53:44;98666.16;;;19.17;52.77
59063;BME280;44851;45.648;9.004;2023-05-24T03:56:10;98670.84;;;19.02;53.34
59063;BME280;44851;45.648;9.004;2023-05-24T03:58:35;98668.59;;;19.12;53.66
59063;BME280;44851;45.648;9.004;2023-05-24T04:01:01;98673.84;;;18.86;53.03
59063;BME280;44851;45.648;9.004;2023-05-24T04:03:27;98673.47;;;18.89;53.09
59063;BME280;44851;45.648;9.004;2023-05-24T04:05:53;98671.63;;;18.96;53.44
59063;BME280;44851;45.648;9.004;2023-05-24T04:08:18;98669.41;;;19.00;53.04
59063;BME280;44851;45.648;9.004;2023-05-24T04:10:44;98670.63;;;18.90;53.43
59063;BME280;44851;45.648;9.004;2023-05-24T04:13:10;98678.31;;;18.85;53.59
59063;BME280;44851;45.648;9.004;2023-05-24T04:15:35;98672.25;;;18.85;54.32
59063;BME280;44851;45.648;9.004;2023-05-24T04:18:02;98674.69;;;18.93;54.45
59063;BME280;44851;45.648;9.004;2023-05-24T04:20:27;98662.91;;;18.89;54.34
59063;BME280;44851;45.648;9.004;2023-05-24T04:22:53;98668.19;;;18.95;54.35
59063;BME280;44851;45.648;9.004;2023-05-24T04:25:20;98671.84;;;18.94;54.37
59063;BME280;44851;45.648;9.004;2023-05-24T04:27:46;98682.41;;;18.88;54.30
59063;BME280;44851;45.648;9.004;2023-05-24T04:30:15;98672.56;;;18.62;54.69
59063;BME280;44851;45.648;9.004;2023-05-24T04:32:41;98672.03;;;18.80;54.93
59063;BME280;44851;45.648;9.004;2023-05-24T04:35:09;98677.13;;;18.88;54.69
59063;BME280;44851;45.648;9.004;2023-05-24T04:37:34;98678.28;;;18.79;54.89
59063;BME280;44851;45.648;9.004;2023-05-24T04:40:00;98677.53;;;18.85;54.88
59063;BME280;44851;45.648;9.004;2023-05-24T04:42:25;98688.13;;;18.91;54.61
59063;BME280;44851;45.648;9.004;2023-05-24T04:44:56;98686.28;;;18.92;55.08
59063;BME280;44851;45.648;9.004;2023-05-24T04:47:22;98684.84;;;18.83;54.83
59063;BME280;44851;45.648;9.004;2023-05-24T04:49:48;98690.50;;;18.80;54.55
59063;BME280;44851;45.648;9.004;2023-05-24T04:52:13;98692.56;;;18.91;54.57
59063;BME280;44851;45.648;9.004;2023-05-24T04:54:39;98690.47;;;18.73;54.93
59063;BME280;44851;45.648;9.004;2023-05-24T04:57:04;98694.38;;;18.90;54.90
59063;BME280;44851;45.648;9.004;2023-05-24T04:59:30;98694.41;;;18.97;54.98
59063;BME280;44851;45.648;9.004;2023-05-24T05:01:55;98698.69;;;18.91;55.38
59063;BME280;44851;45.648;9.004;2023-05-24T05:04:21;98693.41;;;18.91;55.24
59063;BME280;44851;45.648;9.004;2023-05-24T05:06:46;98700.69;;;18.96;54.34
59063;BME280;44851;45.648;9.004;2023-05-24T05:09:12;98697.44;;;18.94;54.71
59063;BME280;44851;45.648;9.004;2023-05-24T05:11:39;98699.69;;;19.04;55.04
59063;BME280;44851;45.648;9.004;2023-05-24T05:14:05;98693.41;;;19.11;55.02
59063;BME280;44851;45.648;9.004;2023-05-24T05:16:33;98705.19;;;19.15;54.37
59063;BME280;44851;45.648;9.004;2023-05-24T05:18:59;98702.34;;;18.97;54.66
59063;BME280;44851;45.648;9.004;2023-05-24T05:21:25;98705.97;;;18.96;54.46
59063;BME280;44851;45.648;9.004;2023-05-24T05:23:50;98703.56;;;19.08;54.21
59063;BME280;44851;45.648;9.004;2023-05-24T05:26:15;98702.56;;;19.15;55.15
59063;BME280;44851;45.648;9.004;2023-05-24T05:28:41;98702.97;;;19.19;54.68
59063;BME280;44851;45.648;9.004;2023-05-24T05:31:06;98694.63;;;19.15;55.46
59063;BME280;44851;45.648;9.004;2023-05-24T05:33:32;98698.28;;;19.28;54.02
59063;BME280;44851;45.648;9.004;2023-05-24T05:35:57;98697.28;;;19.29;55.18
59063;BME280;44851;45.648;9.004;2023-05-24T05:38:23;98701.16;;;19.26;54.56
59063;BME280;44851;45.648;9.004;2023-05-24T05:40:48;98697.47;;;19.20;54.10
59063;BME280;44851;45.648;9.004;2023-05-24T05:43:14;98704.19;;;19.23;54.64
59063;BME280;44851;45.648;9.004;2023-05-24T05:45:39;98697.66;;;19.12;54.56
59063;BME280;44851;45.648;9.004;2023-05-24T05:48:05;98710.09;;;19.18;54.62
59063;BME280;44851;45.648;9.004;2023-05-24T05:50:30;98704.38;;;19.55;55.25
59063;BME280;44851;45.648;9.004;2023-05-24T05:52:56;98701.56;;;19.56;54.47
59063;BME280;44851;45.648;9.004;2023-05-24T05:55:22;98702.97;;;19.39;53.88
59063;BME280;44851;45.648;9.004;2023-05-24T05:57:48;98708.66;;;19.42;54.26
59063;BME280;44851;45.648;9.004;2023-05-24T06:00:14;98712.38;;;19.61;55.23
59063;BME280;44851;45.648;9.004;2023-05-24T06:02:39;98707.28;;;19.66;54.48
59063;BME280;44851;45.648;9.004;2023-05-24T06:05:05;98704.41;;;19.88;54.96
59063;BME280;44851;45.648;9.004;2023-05-24T06:07:30;98708.88;;;19.87;55.05
59063;BME280;44851;45.648;9.004;2023-05-24T06:09:56;98706.34;;;20.12;55.42
59063;BME280;44851;45.648;9.004;2023-05-24T06:12:21;98707.50;;;20.30;54.71
59063;BME280;44851;45.648;9.004;2023-05-24T06:14:47;98704.63;;;20.51;54.54
59063;BME280;44851;45.648;9.004;2023-05-24T06:17:15;98700.94;;;20.52;53.07
59063;BME280;44851;45.648;9.004;2023-05-24T06:19:40;98714.28;;;20.70;52.81
59063;BME280;44851;45.648;9.004;2023-05-24T06:22:07;98711.72;;;20.95;52.07
59063;BME280;44851;45.648;9.004;2023-05-24T06:24:33;98703.84;;;21.20;52.03
59063;BME280;44851;45.648;9.004;2023-05-24T06:26:59;98709.03;;;21.34;52.05
59063;BME280;44851;45.648;9.004;2023-05-24T06:29:24;98713.69;;;21.63;52.94
59063;BME280;44851;45.648;9.004;2023-05-24T06:31:50;98719.59;;;21.84;51.51
59063;BME280;44851;45.648;9.004;2023-05-24T06:34:16;98716.63;;;21.98;51.42
59063;BME280;44851;45.648;9.004;2023-05-24T06:36:43;98710.97;;;22.13;50.47
59063;BME280;44851;45.648;9.004;2023-05-24T06:39:12;98723.34;;;22.38;49.59
59063;BME280;44851;45.648;9.004;2023-05-24T06:41:38;98723.19;;;22.32;49.30
59063;BME280;44851;45.648;9.004;2023-05-24T06:44:03;98722.00;;;22.47;49.35
59063;BME280;44851;45.648;9.004;2023-05-24T06:46:29;98730.72;;;22.84;48.86
59063;BME280;44851;45.648;9.004;2023-05-24T06:48:55;98730.19;;;22.94;46.93
59063;BME280;44851;45.648;9.004;2023-05-24T06:51:20;98727.22;;;23.02;46.47
59063;BME280;44851;45.648;9.004;2023-05-24T06:53:46;98730.53;;;22.86;47.07
59063;BME280;44851;45.648;9.004;2023-05-24T06:56:12;98734.69;;;22.63;47.61
59063;BME280;44851;45.648;9.004;2023-05-24T06:58:37;98730.97;;;22.82;47.36
59063;BME280;44851;45.648;9.004;2023-05-24T07:01:03;98735.09;;;22.78;46.90
59063;BME280;44851;45.648;9.004;2023-05-24T07:03:29;98739.13;;;23.11;46.38
59063;BME280;44851;45.648;9.004;2023-05-24T07:05:56;98733.50;;;23.19;47.35
59063;BME280;44851;45.648;9.004;2023-05-24T07:08:23;98728.03;;;23.02;45.41
59063;BME280;44851;45.648;9.004;2023-05-24T07:10:48;98734.69;;;23.23;46.55
59063;BME280;44851;45.648;9.004;2023-05-24T07:13:14;98737.16;;;23.48;46.38
59063;BME280;44851;45.648;9.004;2023-05-24T07:15:42;98733.84;;;23.76;45.62
59063;BME280;44851;45.648;9.004;2023-05-24T07:18:07;98725.28;;;23.74;44.97
59063;BME280;44851;45.648;9.004;2023-05-24T07:20:33;98727.25;;;23.55;43.23
59063;BME280;44851;45.648;9.004;2023-05-24T07:22:59;98734.78;;;24.05;44.91
59063;BME280;44851;45.648;9.004;2023-05-24T07:25:26;98737.31;;;24.12;44.51
59063;BME280;44851;45.648;9.004;2023-05-24T07:27:51;98739.94;;;24.24;43.38
59063;BME280;44851;45.648;9.004;2023-05-24T07:30:17;98736.78;;;24.38;42.85
59063;BME280;44851;45.648;9.004;2023-05-24T07:32:42;98721.94;;;24.54;42.60
59063;BME280;44851;45.648;9.004;2023-05-24T07:35:10;98731.09;;;24.87;42.78
59063;BME280;44851;45.648;9.004;2023-05-24T07:37:37;98720.50;;;24.75;41.43
59063;BME280;44851;45.648;9.004;2023-05-24T07:40:03;98717.78;;;25.04;43.06
59063;BME280;44851;45.648;9.004;2023-05-24T07:42:29;98722.47;;;24.97;43.25
59063;BME280;44851;45.648;9.004;2023-05-24T07:44:55;98718.13;;;24.62;40.89
59063;BME280;44851;45.648;9.004;2023-05-24T07:47:21;98721.19;;;24.99;42.44
59063;BME280;44851;45.648;9.004;2023-05-24T07:49:46;98717.97;;;25.14;40.69
59063;BME280;44851;45.648;9.004;2023-05-24T07:52:12;98714.69;;;25.40;41.20
59063;BME280;44851;45.648;9.004;2023-05-24T07:54:37;98713.50;;;25.48;41.63
59063;BME280;44851;45.648;9.004;2023-05-24T07:57:03;98712.34;;;25.44;41.38
59063;BME280;44851;45.648;9.004;2023-05-24T07:59:28;98713.78;;;25.52;41.26
59063;BME280;44851;45.648;9.004;2023-05-24T08:01:54;98713.06;;;25.73;40.28
59063;BME280;44851;45.648;9.004;2023-05-24T08:04:25;98723.81;;;25.61;40.94
59063;BME280;44851;45.648;9.004;2023-05-24T08:06:51;98717.91;;;25.76;39.98
59063;BME280;44851;45.648;9.004;2023-05-24T08:09:16;98717.34;;;25.74;40.70
59063;BME280;44851;45.648;9.004;2023-05-24T08:11:41;98717.53;;;25.51;41.57
59063;BME280;44851;45.648;9.004;2023-05-24T08:14:07;98713.56;;;25.53;39.73
59063;BME280;44851;45.648;9.004;2023-05-24T08:16:32;98710.63;;;25.72;40.11
59063;BME280;44851;45.648;9.004;2023-05-24T08:18:58;98710.69;;;25.93;42.12
59063;BME280;44851;45.648;9.004;2023-05-24T08:21:23;98716.63;;;25.95;40.41
59063;BME280;44851;45.648;9.004;2023-05-24T08:23:49;98717.44;;;26.18;41.01
59063;BME280;44851;45.648;9.004;2023-05-24T08:26:15;98708.81;;;26.33;41.16
59063;BME280;44851;45.648;9.004;2023-05-24T08:28:43;98714.91;;;26.28;39.86
59063;BME280;44851;45.648;9.004;2023-05-24T08:31:08;98720.38;;;26.16;38.69
59063;BME280;44851;45.648;9.004;2023-05-24T08:33:34;98709.78;;;26.43;39.18
59063;BME280;44851;45.648;9.004;2023-05-24T08:35:59;98719.94;;;26.46;39.70
59063;BME280;44851;45.648;9.004;2023-05-24T08:38:25;98719.91;;;26.68;40.20
59063;BME280;44851;45.648;9.004;2023-05-24T08:40:50;98710.84;;;26.47;37.83
59063;BME280;44851;45.648;9.004;2023-05-24T08:43:16;98712.91;;;26.62;39.48
59063;BME280;44851;45.648;9.004;2023-05-24T08:45:44;98716.91;;;26.60;37.64
59063;BME280;44851;45.648;9.004;2023-05-24T08:48:10;98713.75;;;26.68;39.81
59063;BME280;44851;45.648;9.004;2023-05-24T08:50:37;98708.19;;;26.69;38.75
59063;BME280;44851;45.648;9.004;2023-05-24T08:53:05;98707.75;;;26.56;38.90
59063;BME280;44851;45.648;9.004;2023-05-24T08:55:31;98703.00;;;26.63;39.06
59063;BME280;44851;45.648;9.004;2023-05-24T08:57:58;98704.78;;;26.79;37.79
59063;BME280;44851;45.648;9.004;2023-05-24T09:00:24;98706.53;;;26.90;37.36
59063;BME280;44851;45.648;9.004;2023-05-24T09:02:50;98702.31;;;26.99;37.60
59063;BME280;44851;45.648;9.004;2023-05-24T09:05:16;98708.09;;;27.13;38.01
59063;BME280;44851;45.648;9.004;2023-05-24T09:07:43;98696.47;;;27.03;37.65
59063;BME280;44851;45.648;9.004;2023-05-24T09:10:09;98702.84;;;26.96;37.31
59063;BME280;44851;45.648;9.004;2023-05-24T09:12:36;98696.28;;;27.09;37.92
59063;BME280;44851;45.648;9.004;2023-05-24T09:15:04;98700.31;;;27.12;37.38
59063;BME280;44851;45.648;9.004;2023-05-24T09:17:30;98701.41;;;27.16;37.23
59063;BME280;44851;45.648;9.004;2023-05-24T09:19:57;98696.06;;;27.16;37.93
59063;BME280;44851;45.648;9.004;2023-05-24T09:22:24;98699.47;;;27.38;38.03
59063;BME280;44851;45.648;9.004;2023-05-24T09:24:52;98694.91;;;27.39;38.18
59063;BME280;44851;45.648;9.004;2023-05-24T09:27:22;98692.97;;;27.29;38.08
59063;BME280;44851;45.648;9.004;2023-05-24T09:29:48;98689.75;;;27.64;40.08
59063;BME280;44851;45.648;9.004;2023-05-24T09:32:16;98688.25;;;27.09;36.29
59063;BME280;44851;45.648;9.004;2023-05-24T09:34:44;98688.31;;;27.51;38.35
59063;BME280;44851;45.648;9.004;2023-05-24T09:37:17;98691.31;;;27.60;37.33
59063;BME280;44851;45.648;9.004;2023-05-24T09:39:45;98685.81;;;27.40;37.57
59063;BME280;44851;45.648;9.004;2023-05-24T09:42:15;98688.22;;;27.41;37.18
59063;BME280;44851;45.648;9.004;2023-05-24T09:44:42;98677.91;;;27.55;36.48
59063;BME280;44851;45.648;9.004;2023-05-24T09:47:08;98684.72;;;27.73;37.85
59063;BME280;44851;45.648;9.004;2023-05-24T09:49:37;98681.25;;;27.77;36.40
59063;BME280;44851;45.648;9.004;2023-05-24T09:52:03;98682.09;;;27.83;36.76
59063;BME280;44851;45.648;9.004;2023-05-24T09:54:30;98684.16;;;27.66;35.79
59063;BME280;44851;45.648;9.004;2023-05-24T09:56:59;98682.97;;;27.99;37.23
59063;BME280;44851;45.648;9.004;2023-05-24T09:59:26;98684.13;;;28.13;37.22
59063;BME280;44851;45.648;9.004;2023-05-24T10:01:56;98680.53;;;27.92;35.96
59063;BME280;44851;45.648;9.004;2023-05-24T10:04:34;98680.31;;;28.04;36.80
59063;BME280;44851;45.648;9.004;2023-05-24T10:06:59;98674.16;;;28.03;36.48
59063;BME280;44851;45.648;9.004;2023-05-24T10:09:28;98676.91;;;28.19;35.89
59063;BME280;44851;45.648;9.004;2023-05-24T10:12:00;98676.13;;;28.23;35.74
59063;BME280;44851;45.648;9.004;2023-05-24T10:14:33;98675.28;;;28.18;37.73
59063;BME280;44851;45.648;9.004;2023-05-24T10:17:01;98679.94;;;27.80;37.02
59063;BME280;44851;45.648;9.004;2023-05-24T10:19:29;98673.44;;;27.66;37.03
59063;BME280;44851;45.648;9.004;2023-05-24T10:21:55;98668.19;;;27.86;36.58
59063;BME280;44851;45.648;9.004;2023-05-24T10:24:25;98668.25;;;27.59;36.72
59063;BME280;44851;45.648;9.004;2023-05-24T10:26:52;98668.03;;;27.61;35.82
59063;BME280;44851;45.648;9.004;2023-05-24T10:32:41;98665.25;;;27.88;35.63
59063;BME280;44851;45.648;9.004;2023-05-24T10:35:09;98662.22;;;28.26;37.48
59063;BME280;44851;45.648;9.004;2023-05-24T10:37:39;98654.16;;;28.21;35.98
59063;BME280;44851;45.648;9.004;2023-05-24T10:40:05;98654.50;;;28.45;36.87
59063;BME280;44851;45.648;9.004;2023-05-24T10:42:34;98647.00;;;28.47;36.00
59063;BME280;44851;45.648;9.004;2023-05-24T10:47:55;98645.34;;;28.36;36.61
59063;BME280;44851;45.648;9.004;2023-05-24T10:50:21;98647.47;;;28.24;35.94
59063;BME280;44851;45.648;9.004;2023-05-24T10:52:50;98634.13;;;28.65;37.82
59063;BME280;44851;45.648;9.004;2023-05-24T10:55:18;98641.09;;;28.66;36.00
59063;BME280;44851;45.648;9.004;2023-05-24T10:57:44;98636.31;;;28.68;37.13
59063;BME280;44851;45.648;9.004;2023-05-24T11:02:48;98634.16;;;28.75;35.61
59063;BME280;44851;45.648;9.004;2023-05-24T11:05:13;98632.03;;;28.72;37.27
59063;BME280;44851;45.648;9.004;2023-05-24T11:07:43;98633.84;;;28.46;36.68
59063;BME280;44851;45.648;9.004;2023-05-24T11:10:17;98641.59;;;28.37;36.05
59063;BME280;44851;45.648;9.004;2023-05-24T11:12:59;98633.66;;;28.78;35.44
59063;BME280;44851;45.648;9.004;2023-05-24T11:15:26;98623.97;;;28.72;34.67
59063;BME280;44851;45.648;9.004;2023-05-24T11:20:42;98612.69;;;28.70;34.30
59063;BME280;44851;45.648;9.004;2023-05-24T11:23:08;98611.66;;;28.76;35.78
59063;BME280;44851;45.648;9.004;2023-05-24T11:25:40;98609.78;;;28.92;35.32
59063;BME280;44851;45.648;9.004;2023-05-24T11:28:10;98607.31;;;28.75;34.34
59063;BME280;44851;45.648;9.004;2023-05-24T11:30:46;98600.34;;;28.59;34.78
59063;BME280;44851;45.648;9.004;2023-05-24T11:33:19;98608.38;;;28.43;35.34
59063;BME280;44851;45.648;9.004;2023-05-24T11:35:47;98598.38;;;28.13;35.69
59063;BME280;44851;45.648;9.004;2023-05-24T11:38:14;98594.88;;;28.13;35.40
59063;BME280;44851;45.648;9.004;2023-05-24T11:40:44;98589.84;;;28.21;37.05
59063;BME280;44851;45.648;9.004;2023-05-24T11:43:16;98594.94;;;28.28;35.64
59063;BME280;44851;45.648;9.004;2023-05-24T11:45:44;98589.56;;;28.23;37.22
59063;BME280;44851;45.648;9.004;2023-05-24T11:48:10;98594.88;;;28.18;35.54
59063;BME280;44851;45.648;9.004;2023-05-24T11:50:40;98589.50;;;28.13;37.39
59063;BME280;44851;45.648;9.004;2023-05-24T11:53:12;98587.00;;;27.86;36.85
59063;BME280;44851;45.648;9.004;2023-05-24T11:55:38;98589.13;;;27.73;36.66
59063;BME280;44851;45.648;9.004;2023-05-24T11:58:10;98594.13;;;27.60;35.68
59063;BME280;44851;45.648;9.004;2023-05-24T12:00:36;98596.25;;;27.58;38.44
59063;BME280;44851;45.648;9.004;2023-05-24T12:03:23;98588.13;;;27.42;37.23
59063;BME280;44851;45.648;9.004;2023-05-24T12:05:56;98583.78;;;27.31;36.83
59063;BME280;44851;45.648;9.004;2023-05-24T12:08:22;98593.31;;;27.12;37.19
59063;BME280;44851;45.648;9.004;2023-05-24T12:10:47;98582.78;;;27.42;38.20
59063;BME280;44851;45.648;9.004;2023-05-24T12:13:24;98593.63;;;27.63;37.92
59063;BME280;44851;45.648;9.004;2023-05-24T12:15:53;98578.78;;;27.97;36.44
59063;BME280;44851;45.648;9.004;2023-05-24T12:18:22;98581.03;;;28.36;37.55
59063;BME280;44851;45.648;9.004;2023-05-24T12:20:48;98577.81;;;28.60;36.07
59063;BME280;44851;45.648;9.004;2023-05-24T12:23:15;98578.66;;;28.96;36.02
59063;BME280;44851;45.648;9.004;2023-05-24T12:25:41;98568.16;;;28.69;34.63
59063;BME280;44851;45.648;9.004;2023-05-24T12:28:06;98571.16;;;28.77;34.99
59063;BME280;44851;45.648;9.004;2023-05-24T12:30:31;98566.56;;;28.47;35.01
59063;BME280;44851;45.648;9.004;2023-05-24T12:32:57;98564.41;;;28.54;35.94
59063;BME280;44851;45.648;9.004;2023-05-24T12:35:23;98571.38;;;28.71;37.41
59063;BME280;44851;45.648;9.004;2023-05-24T12:37:48;98555.84;;;28.68;34.58
59063;BME280;44851;45.648;9.004;2023-05-24T12:40:18;98547.25;;;28.86;35.60
59063;BME280;44851;45.648;9.004;2023-05-24T12:42:53;98562.50;;;28.19;35.59
59063;BME280;44851;45.648;9.004;2023-05-24T12:45:22;98556.91;;;28.51;37.03
59063;BME280;44851;45.648;9.004;2023-05-24T12:47:53;98556.66;;;28.99;36.24
59063;BME280;44851;45.648;9.004;2023-05-24T12:50:20;98547.25;;;28.30;36.15
59063;BME280;44851;45.648;9.004;2023-05-24T12:52:46;98554.28;;;28.82;37.54
59063;BME280;44851;45.648;9.004;2023-05-24T12:55:13;98541.31;;;28.28;37.14
59063;BME280;44851;45.648;9.004;2023-05-24T12:57:42;98535.97;;;28.28;36.93
59063;BME280;44851;45.648;9.004;2023-05-24T13:00:09;98529.00;;;28.27;36.43
59063;BME280;44851;45.648;9.004;2023-05-24T13:02:35;98518.13;;;27.66;35.05
59063;BME280;44851;45.648;9.004;2023-05-24T13:05:01;98521.69;;;27.29;35.91
59063;BME280;44851;45.648;9.004;2023-05-24T13:07:28;98516.25;;;27.14;35.60
59063;BME280;44851;45.648;9.004;2023-05-24T13:09:54;98508.00;;;27.20;35.33
59063;BME280;44851;45.648;9.004;2023-05-24T13:12:20;98511.38;;;27.06;36.22
59063;BME280;44851;45.648;9.004;2023-05-24T13:14:53;98516.09;;;26.93;35.99
59063;BME280;44851;45.648;9.004;2023-05-24T13:17:18;98507.72;;;27.22;36.65
59063;BME280;44851;45.648;9.004;2023-05-24T13:19:44;98502.59;;;27.10;35.34